Time;durP1;ratioP1;P1;durP2;ratioP2;P2;SDS_P1;SDS_P2;PMS_P1;PMS_P2;Temp;Humidity;BMP_temperature;BMP_pressure;BME280_temperature;BME280_humidity;BME280_pressure;Samples;Min_cycle;Max_cycle;Signal;HPM_P1;HPM_P2
2022/07/04 00:01:37;;;;;;;0.20;0.20;;;;;;;21.12;39.30;101427.00;5160845;28;20048;-78
2022/07/04 00:04:10;;;;;;;0.20;0.20;;;;;;;21.09;39.40;101429.00;5195344;28;20953;-78
2022/07/04 00:06:43;;;;;;;0.40;0.40;;;;;;;21.02;39.27;101437.38;5215271;28;20401;-78
2022/07/04 00:09:14;;;;;;;0.25;0.25;;;;;;;20.99;39.13;101432.19;5187794;28;20040;-78
2022/07/04 00:11:45;;;;;;;0.40;0.40;;;;;;;20.99;39.41;101432.19;5203946;28;20044;-78
2022/07/04 00:14:18;;;;;;;0.20;0.20;;;;;;;20.95;39.54;101436.00;5190579;28;20552;-78
2022/07/04 00:16:49;;;;;;;0.95;0.90;;;;;;;20.90;39.57;101432.75;5201429;28;20049;-79
2022/07/04 00:19:20;;;;;;;0.40;0.40;;;;;;;20.88;39.39;101431.97;5195580;28;20043;-77
2022/07/04 00:21:51;;;;;;;0.25;0.25;;;;;;;20.85;39.32;101434.84;5195056;28;20405;-77
2022/07/04 00:24:22;;;;;;;0.20;0.20;;;;;;;20.83;40.43;101426.91;5187225;28;20579;-77
2022/07/04 00:26:52;;;;;;;0.20;0.20;;;;;;;20.80;40.40;101436.91;5180507;28;20049;-78
2022/07/04 00:29:22;;;;;;;0.30;0.30;;;;;;;20.78;40.63;101431.66;5198682;28;20044;-78
2022/07/04 00:31:53;;;;;;;0.20;0.20;;;;;;;20.70;40.58;101421.41;5181962;28;20033;-78
2022/07/04 00:34:24;;;;;;;0.20;0.20;;;;;;;20.64;40.15;101419.09;5178173;28;20064;-78
2022/07/04 00:36:55;;;;;;;2.38;0.60;;;;;;;20.63;40.29;101427.22;5197298;28;20025;-78
2022/07/04 00:39:25;;;;;;;0.20;0.20;;;;;;;20.58;39.97;101411.47;5201505;28;20036;-78
2022/07/04 00:41:57;;;;;;;0.45;0.45;;;;;;;20.54;40.10;101421.47;5186762;28;20079;-79
2022/07/04 00:44:27;;;;;;;0.20;0.20;;;;;;;20.50;40.28;101411.06;5186621;28;20037;-79
2022/07/04 00:47:07;;;;;;;0.20;0.20;;;;;;;20.47;40.44;101411.25;5181294;28;20045;-78
2022/07/04 00:49:39;;;;;;;0.20;0.20;;;;;;;20.40;40.73;101408.94;5167756;28;20044;-78
2022/07/04 00:52:12;;;;;;;0.30;0.30;;;;;;;20.39;40.16;101406.38;5216974;28;20040;-78
2022/07/04 00:54:45;;;;;;;0.55;0.55;;;;;;;20.34;40.56;101409.28;5199066;28;20098;-78
2022/07/04 00:57:15;;;;;;;0.30;0.30;;;;;;;20.31;40.26;101404.13;5187997;28;20055;-78
2022/07/04 00:59:46;;;;;;;1.20;1.10;;;;;;;20.26;40.43;101406.22;5206979;28;20616;-78
2022/07/04 01:02:16;;;;;;;0.30;0.30;;;;;;;20.24;40.09;101410.75;5184400;28;20044;-79
2022/07/04 01:04:47;;;;;;;0.20;0.20;;;;;;;20.20;40.45;101407.41;5214856;28;20033;-81
2022/07/04 01:07:18;;;;;;;0.20;0.20;;;;;;;20.15;40.29;101406.81;5181470;28;20449;-78
2022/07/04 01:09:52;;;;;;;0.30;0.30;;;;;;;20.11;40.43;101414.13;5187680;28;20098;-78
2022/07/04 01:12:28;;;;;;;0.17;0.17;;;;;;;20.08;40.92;101408.97;5188608;28;20698;-78
2022/07/04 01:14:59;;;;;;;0.30;0.30;;;;;;;20.04;40.82;101402.09;5216989;28;20698;-78
2022/07/04 01:17:38;;;;;;;0.20;0.20;;;;;;;20.02;40.66;101406.66;5198017;28;20140;-78
2022/07/04 01:20:12;;;;;;;0.30;0.30;;;;;;;19.97;40.83;101411.38;5182951;28;20037;-78
2022/07/04 01:22:42;;;;;;;0.30;0.30;;;;;;;19.93;40.58;101405.34;5179250;28;20119;-78
2022/07/04 01:25:14;;;;;;;0.30;0.30;;;;;;;19.89;41.10;101414.47;5216582;28;20048;-78
2022/07/04 01:27:45;;;;;;;0.30;0.30;;;;;;;19.86;41.10;101413.78;5170863;28;20539;-78
2022/07/04 01:30:18;;;;;;;0.40;0.40;;;;;;;19.82;41.10;101405.91;5184822;28;20739;-78
2022/07/04 01:32:48;;;;;;;;;;;;;;;19.78;40.93;101407.06;5182694;28;20075;-79
2022/07/04 01:35:20;;;;;;;0.40;0.40;;;;;;;19.74;41.52;101410.81;5205496;28;19925;-78
2022/07/04 01:37:57;;;;;;;0.17;0.17;;;;;;;19.70;41.41;101409.28;5169915;28;20032;-78
2022/07/04 01:40:28;;;;;;;0.25;0.25;;;;;;;19.68;41.30;101403.16;5193679;28;20036;-78
2022/07/04 01:43:02;;;;;;;0.20;0.20;;;;;;;19.64;41.42;101404.25;5187393;28;20025;-78
2022/07/04 01:45:34;;;;;;;0.28;0.28;;;;;;;19.61;41.52;101410.63;5181701;28;20053;-78
2022/07/04 01:48:09;;;;;;;0.57;0.57;;;;;;;19.57;41.54;101397.56;5207417;28;20048;-78
2022/07/04 01:50:40;;;;;;;0.88;0.88;;;;;;;19.55;41.73;101399.44;5181279;28;20037;-78
2022/07/04 01:53:10;;;;;;;0.50;0.50;;;;;;;19.50;41.79;101405.88;5202469;28;20565;-78
2022/07/04 01:55:43;;;;;;;0.20;0.20;;;;;;;19.50;41.94;101403.22;5199490;28;20037;-79
2022/07/04 01:58:14;;;;;;;0.28;0.28;;;;;;;19.45;41.72;101405.28;5206212;28;20028;-78
2022/07/04 02:03:41;;;;;;;0.30;0.30;;;;;;;19.38;41.72;101403.88;5200961;28;20136;-78
2022/07/04 02:06:24;;;;;;;0.30;0.30;;;;;;;19.33;41.61;101413.91;5198986;28;20120;-78
2022/07/04 02:14:40;;;;;;;0.20;0.20;;;;;;;19.21;42.30;101422.56;5185081;28;20317;-79
2022/07/04 02:17:13;;;;;;;0.30;0.30;;;;;;;19.17;42.48;101420.03;5184056;28;20332;-78
2022/07/04 02:19:43;;;;;;;0.20;0.20;;;;;;;19.14;42.08;101417.53;5201489;28;20485;-78
2022/07/04 02:22:14;;;;;;;0.20;0.20;;;;;;;19.09;42.28;101419.56;5197336;28;20261;-79
2022/07/04 02:24:45;;;;;;;0.20;0.20;;;;;;;19.08;42.27;101430.31;5207218;28;20093;-78
2022/07/04 02:27:16;;;;;;;0.55;0.45;;;;;;;19.03;42.33;101428.72;5179325;28;20051;-78
2022/07/04 02:29:46;;;;;;;0.30;0.30;;;;;;;19.01;42.67;101437.72;5192230;28;20075;-79
2022/07/04 02:32:17;;;;;;;0.22;0.22;;;;;;;18.98;42.48;101436.09;5207070;28;20401;-78
2022/07/04 02:34:47;;;;;;;0.50;0.50;;;;;;;18.95;42.79;101430.06;5185272;28;20473;-78
2022/07/04 02:37:18;;;;;;;0.20;0.20;;;;;;;18.90;42.60;101435.59;5200354;28;20509;-78
2022/07/04 02:39:49;;;;;;;0.30;0.30;;;;;;;18.86;42.82;101429.56;5185754;28;20056;-78
2022/07/04 02:42:20;;;;;;;0.22;0.22;;;;;;;18.83;43.12;101429.72;5203168;28;20247;-78
2022/07/04 02:44:53;;;;;;;0.30;0.30;;;;;;;18.80;42.89;101435.19;5198397;28;20025;-78
2022/07/04 02:47:24;;;;;;;0.20;0.20;;;;;;;18.80;43.14;101448.47;5183755;28;20574;-78
2022/07/04 02:49:55;;;;;;;0.30;0.30;;;;;;;18.76;43.03;101449.56;5189672;28;20032;-78
2022/07/04 02:52:25;;;;;;;0.30;0.30;;;;;;;18.73;43.22;101455.03;5184601;28;20036;-78
2022/07/04 02:54:56;;;;;;;1.75;1.02;;;;;;;18.70;43.10;101450.72;5201589;28;20052;-78
2022/07/04 02:57:27;;;;;;;0.70;0.45;;;;;;;18.67;43.51;101450.03;5167949;28;20045;-78
2022/07/04 02:59:57;;;;;;;0.40;0.40;;;;;;;18.64;43.38;101445.72;5188996;28;20025;-78
2022/07/04 03:02:28;;;;;;;11.25;0.63;;;;;;;18.63;43.41;101448.47;5201677;28;20128;-79
2022/07/04 03:04:58;;;;;;;0.70;0.50;;;;;;;18.59;43.73;101457.53;5193484;28;20031;-79
2022/07/04 03:07:29;;;;;;;0.28;0.28;;;;;;;18.54;43.39;101460.41;5184127;28;20122;-78
2022/07/04 03:10:00;;;;;;;0.35;0.35;;;;;;;18.51;43.38;101456.09;5216861;28;20313;-78
2022/07/04 03:12:33;;;;;;;0.60;0.60;;;;;;;18.50;43.63;101465.00;5188161;28;20045;-79
2022/07/04 03:15:06;;;;;;;;;;;;;;;18.46;43.61;101468.75;5186913;28;20053;-79
2022/07/04 03:17:38;;;;;;;0.20;0.20;;;;;;;18.44;43.99;101473.28;5196721;28;19917;-79
2022/07/04 03:20:14;;;;;;;0.30;0.30;;;;;;;18.39;43.70;101470.84;5202504;28;20029;-79
2022/07/04 03:22:51;;;;;;;0.85;0.50;;;;;;;18.33;43.49;101473.81;5183433;28;20095;-78
2022/07/04 03:25:22;;;;;;;0.60;0.60;;;;;;;18.34;43.89;101479.97;5201002;28;20657;-78
2022/07/04 03:27:56;;;;;;;0.20;0.20;;;;;;;18.31;43.80;101480.09;5205462;28;20128;-79
2022/07/04 03:30:27;;;;;;;5.13;0.75;;;;;;;18.27;43.77;101478.53;5203678;28;20754;-79
2022/07/04 03:32:57;;;;;;;0.57;0.57;;;;;;;18.23;43.86;101488.44;5184842;28;20107;-78
2022/07/04 03:35:28;;;;;;;0.20;0.20;;;;;;;18.20;44.01;101489.47;5200581;28;20498;-79
2022/07/04 03:37:59;;;;;;;0.70;0.70;;;;;;;18.20;44.12;101491.25;5218052;28;20159;-79
2022/07/04 03:40:30;;;;;;;0.30;0.30;;;;;;;18.16;44.27;101487.03;5201100;28;20536;-79
2022/07/04 03:43:11;;;;;;;0.52;0.52;;;;;;;18.13;44.08;101485.38;5186445;28;20032;-79
2022/07/04 03:45:45;;;;;;;0.63;0.63;;;;;;;18.11;44.37;101487.22;5184444;28;20045;-79
2022/07/04 03:48:15;;;;;;;0.57;0.57;;;;;;;18.07;44.25;101489.16;5205044;28;20116;-79
2022/07/04 03:50:46;;;;;;;0.73;0.73;;;;;;;18.07;44.17;101489.16;5196252;28;20124;-79
2022/07/04 03:53:17;;;;;;;0.28;0.28;;;;;;;18.05;44.48;101490.19;5180161;28;20194;-78
2022/07/04 03:55:47;;;;;;;7.63;1.15;;;;;;;18.02;44.63;101490.31;5198137;28;20033;-78
2022/07/04 03:58:18;;;;;;;2.28;0.65;;;;;;;17.99;44.57;101482.47;5205141;28;20047;-78
2022/07/04 04:00:49;;;;;;;0.40;0.40;;;;;;;17.93;44.35;101475.66;5166100;28;20033;-78
2022/07/04 04:06:25;;;;;;;0.55;0.55;;;;;;;17.90;44.72;101481.94;5162769;28;20075;-78
2022/07/04 04:08:56;;;;;;;0.45;0.40;;;;;;;17.87;45.02;101479.44;5189592;28;20087;-79
2022/07/04 04:11:27;;;;;;;1.17;1.10;;;;;;;17.84;44.92;101482.22;5182301;28;20708;-78
2022/07/04 04:13:57;;;;;;;0.50;0.50;;;;;;;17.82;45.29;101484.06;5201643;28;20029;-78
2022/07/04 04:16:31;;;;;;;1.17;1.05;;;;;;;17.81;45.05;101492.97;5186573;28;20041;-78
2022/07/04 04:19:02;;;;;;;0.30;0.30;;;;;;;17.76;44.84;101482.59;5184048;28;20535;-78
2022/07/04 04:21:32;;;;;;;1.88;0.75;;;;;;;17.76;45.31;101485.25;5165865;28;20040;-78
2022/07/04 04:24:07;;;;;;;0.40;0.40;;;;;;;17.75;45.48;101482.63;5202082;28;20569;-78
2022/07/04 04:26:38;;;;;;;0.25;0.25;;;;;;;17.75;45.48;101485.28;5197950;28;20595;-79
2022/07/04 04:29:08;;;;;;;0.30;0.30;;;;;;;17.74;45.64;101491.53;5183707;28;20040;-79
2022/07/04 04:31:39;;;;;;;0.73;0.73;;;;;;;17.73;45.65;101490.69;5202911;28;20470;-79
2022/07/04 04:34:10;;;;;;;1.40;1.20;;;;;;;17.74;45.58;101491.53;5197517;28;20025;-79
2022/07/04 04:36:40;;;;;;;0.20;0.20;;;;;;;17.75;46.61;101490.59;5168646;28;20059;-79
2022/07/04 04:39:11;;;;;;;1.08;0.45;;;;;;;17.75;45.91;101494.13;5181312;28;20103;-79
2022/07/04 04:41:41;;;;;;;0.75;0.75;;;;;;;17.71;47.84;101492.53;5198075;28;20102;-81
2022/07/04 04:44:12;;;;;;;0.20;0.20;;;;;;;17.71;48.41;101497.00;5179707;28;20091;-79
2022/07/04 04:46:42;;;;;;;0.50;0.50;;;;;;;17.72;46.11;101504.03;5183714;28;20469;-79
2022/07/04 04:49:13;;;;;;;0.30;0.30;;;;;;;17.73;46.44;101508.38;5180190;28;20060;-79
2022/07/04 04:51:44;;;;;;;0.40;0.40;;;;;;;17.74;46.68;101503.03;5194346;28;20090;-81
2022/07/04 04:54:14;;;;;;;2.17;1.25;;;;;;;17.71;46.62;101508.47;5202909;28;20465;-80
2022/07/04 04:56:45;;;;;;;0.38;0.38;;;;;;;17.70;46.14;101505.88;5205992;28;20045;-80
2022/07/04 04:59:15;;;;;;;0.40;0.40;;;;;;;17.73;46.51;101505.72;5196062;28;20056;-80
2022/07/04 05:01:46;;;;;;;0.85;0.85;;;;;;;17.73;46.29;101505.72;5201487;28;20037;-80
2022/07/04 05:04:16;;;;;;;0.50;0.50;;;;;;;17.73;46.45;101506.59;5202722;28;20350;-80
2022/07/04 05:06:53;;;;;;;0.30;0.30;;;;;;;17.74;46.61;101515.41;5193010;28;20049;-80
2022/07/04 05:09:26;;;;;;;0.30;0.30;;;;;;;17.71;47.85;101513.75;5199817;28;20120;-80
2022/07/04 05:11:57;;;;;;;0.30;0.30;;;;;;;17.72;47.10;101512.84;5204146;28;20041;-80
2022/07/04 05:14:28;;;;;;;0.70;0.52;;;;;;;17.75;47.18;101514.50;5182988;28;20094;-80
2022/07/04 05:16:59;;;;;;;0.43;0.43;;;;;;;17.65;50.08;101518.47;5184688;28;20120;-80
2022/07/04 05:19:29;;;;;;;0.30;0.30;;;;;;;17.68;48.31;101515.69;5192398;28;20037;-80
2022/07/04 05:22:00;;;;;;;0.20;0.20;;;;;;;17.74;51.59;101523.38;5216058;28;20325;-80
2022/07/04 05:24:30;;;;;;;0.30;0.30;;;;;;;17.70;48.92;101521.81;5208395;28;20033;-80
2022/07/04 05:27:04;;;;;;;0.30;0.30;;;;;;;17.79;49.40;101516.09;5186686;28;20067;-80
2022/07/04 05:29:43;;;;;;;0.20;0.20;;;;;;;17.80;49.28;101517.81;5185095;28;20037;-80
2022/07/04 05:32:14;;;;;;;0.40;0.40;;;;;;;17.85;50.09;101514.97;5200374;28;20447;-80
2022/07/04 05:34:44;;;;;;;0.25;0.25;;;;;;;17.84;49.64;101516.72;5201045;28;20120;-80
2022/07/04 05:37:15;;;;;;;0.20;0.20;;;;;;;17.86;49.37;101517.53;5200414;28;20036;-80
2022/07/04 05:39:46;;;;;;;0.22;0.22;;;;;;;17.84;49.92;101518.53;5189599;28;20237;-80
2022/07/04 05:42:17;;;;;;;0.20;0.20;;;;;;;17.87;51.50;101524.56;5184370;28;20045;-80
2022/07/04 05:44:48;;;;;;;0.28;0.28;;;;;;;17.84;52.12;101513.22;5190415;28;20025;-80
2022/07/04 05:47:23;;;;;;;0.65;0.40;;;;;;;17.81;53.72;101514.22;5203710;28;20044;-80
2022/07/04 05:49:54;;;;;;;0.40;0.40;;;;;;;17.83;53.55;101512.34;5202558;28;20451;-80
2022/07/04 05:52:27;;;;;;;4.32;1.30;;;;;;;17.84;50.35;101513.22;5172222;28;20051;-80
2022/07/04 05:54:58;;;;;;;3.20;0.80;;;;;;;17.82;54.48;101510.63;5214910;28;20667;-80
2022/07/04 05:57:28;;;;;;;0.30;0.30;;;;;;;17.83;51.52;101506.19;5184165;28;20048;-80
2022/07/04 05:59:59;;;;;;;0.85;0.55;;;;;;;17.90;50.50;101508.47;5200871;28;20025;-80
2022/07/04 06:02:29;;;;;;;0.55;0.47;;;;;;;17.96;52.53;101501.22;5198825;28;20064;-79
2022/07/04 06:05:00;;;;;;;2.47;1.35;;;;;;;17.92;54.06;101498.66;5200228;28;20021;-80
2022/07/04 06:07:30;;;;;;;0.20;0.20;;;;;;;17.80;53.99;101491.28;5193305;28;20338;-79
2022/07/04 06:10:01;;;;;;;0.20;0.20;;;;;;;17.86;54.09;101496.28;5183327;28;20028;-80
2022/07/04 06:12:31;;;;;;;1.30;1.20;;;;;;;17.90;53.17;101492.56;5196626;28;20048;-80
2022/07/04 06:15:05;;;;;;;0.30;0.30;;;;;;;17.93;53.78;101492.44;5179032;28;20293;-80
2022/07/04 06:17:36;;;;;;;;;;;;;;;17.84;54.29;101492.00;5205192;28;20094;-79
2022/07/04 06:20:10;;;;;;;0.30;0.30;;;;;;;17.84;55.01;101492.84;5189013;28;19942;-80
2022/07/04 06:22:47;;;;;;;0.30;0.30;;;;;;;18.00;53.55;101490.41;5179583;28;20041;-80
2022/07/04 06:25:19;;;;;;;0.50;0.50;;;;;;;18.01;52.47;101493.91;5182286;28;20033;-79
2022/07/04 06:27:52;;;;;;;0.60;0.60;;;;;;;17.96;54.03;101490.59;5182791;28;20125;-79
2022/07/04 06:30:22;;;;;;;0.43;0.43;;;;;;;18.06;52.68;101491.88;5200346;28;20037;-80
2022/07/04 06:32:59;;;;;;;0.20;0.20;;;;;;;18.01;54.40;101494.78;5198432;28;20047;-79
2022/07/04 06:35:48;;;;;;;0.30;0.30;;;;;;;17.93;53.57;101496.88;5185596;28;20063;-79
2022/07/04 06:38:20;;;;;;;0.50;0.50;;;;;;;18.05;53.71;101496.34;5187802;28;20036;-80
2022/07/04 06:40:55;;;;;;;0.43;0.43;;;;;;;18.05;53.76;101506.97;5193216;28;20033;-79
2022/07/04 06:43:25;;;;;;;0.60;0.60;;;;;;;18.04;54.51;101502.56;5193870;28;20037;-79
2022/07/04 06:45:56;;;;;;;0.20;0.20;;;;;;;18.09;54.40;101503.25;5189080;28;20048;-79
2022/07/04 06:48:29;;;;;;;15.10;1.27;;;;;;;18.10;54.96;101509.41;5176456;28;20129;-79
2022/07/04 06:51:00;;;;;;;0.30;0.30;;;;;;;18.09;53.24;101510.34;5184462;28;20068;-79
2022/07/04 06:53:30;;;;;;;0.57;0.57;;;;;;;18.13;53.16;101511.94;5172709;28;20071;-79
2022/07/04 06:56:01;;;;;;;0.45;0.45;;;;;;;18.25;52.20;101499.88;5222429;28;20470;-79
2022/07/04 06:58:32;;;;;;;0.30;0.30;;;;;;;18.21;54.12;101512.44;5187628;28;20064;-79
2022/07/04 07:01:03;;;;;;;0.20;0.20;;;;;;;18.27;52.42;101515.72;5183795;28;20049;-79
2022/07/04 07:03:33;;;;;;;0.17;0.17;;;;;;;18.37;52.22;101512.56;5185706;28;20062;-79
2022/07/04 07:06:08;;;;;;;3.20;0.50;;;;;;;18.37;51.94;101506.41;5217626;28;20044;-79
2022/07/04 07:08:38;;;;;;;0.82;0.82;;;;;;;18.32;53.40;101508.38;5187047;28;20024;-79
2022/07/04 07:11:12;;;;;;;0.20;0.20;;;;;;;18.35;52.08;101513.56;5184408;28;20039;-80
2022/07/04 07:13:45;;;;;;;0.28;0.28;;;;;;;18.44;51.84;101512.25;5182097;28;20040;-79
2022/07/04 07:16:17;;;;;;;0.38;0.38;;;;;;;18.49;51.06;101504.94;5193031;28;20036;-80
2022/07/04 07:18:49;;;;;;;0.30;0.30;;;;;;;18.50;52.08;101510.19;5218244;28;20067;-79
2022/07/04 07:21:19;;;;;;;0.22;0.22;;;;;;;18.58;50.97;101507.16;5171445;28;20037;-79
2022/07/04 07:23:50;;;;;;;0.20;0.20;;;;;;;18.43;52.36;101506.09;5199711;28;20036;-80
2022/07/04 07:26:21;;;;;;;0.38;0.38;;;;;;;18.51;51.18;101498.63;5202817;28;20796;-80
2022/07/04 07:28:51;;;;;;;0.30;0.30;;;;;;;18.48;52.72;101503.22;5196913;28;20025;-80
2022/07/04 07:31:22;;;;;;;0.43;0.43;;;;;;;18.58;51.58;101504.50;5184816;28;20464;-80
2022/07/04 07:33:52;;;;;;;0.20;0.20;;;;;;;18.63;51.55;101501.63;5200365;28;20041;-79
2022/07/04 07:36:23;;;;;;;0.35;0.35;;;;;;;18.61;51.51;101498.19;5190314;28;20129;-80
2022/07/04 07:38:56;;;;;;;0.20;0.20;;;;;;;18.73;50.90;101502.88;5195647;28;20033;-80
2022/07/04 07:41:27;;;;;;;0.20;0.20;;;;;;;18.78;50.87;101498.22;5182247;28;20045;-80
2022/07/04 07:43:58;;;;;;;6.15;1.80;;;;;;;18.78;50.59;101506.19;5183519;28;20033;-79
2022/07/04 07:46:29;;;;;;;0.20;0.20;;;;;;;18.73;50.81;101508.19;5198412;28;20043;-79
2022/07/04 07:48:59;;;;;;;0.20;0.20;;;;;;;18.77;50.31;101511.56;5196829;28;20058;-80
2022/07/04 07:51:30;;;;;;;0.20;0.20;;;;;;;18.91;50.14;101509.09;5200722;28;20501;-80
2022/07/04 07:54:03;;;;;;;19.58;1.52;;;;;;;18.88;50.46;101506.59;5200306;28;20028;-80
2022/07/04 07:56:38;;;;;;;0.63;0.63;;;;;;;18.95;50.27;101507.19;5179368;28;20732;-80
2022/07/04 07:59:12;;;;;;;2.05;0.55;;;;;;;18.84;50.74;101505.88;5183544;28;20029;-80
2022/07/04 08:01:42;;;;;;;0.20;0.20;;;;;;;18.95;49.78;101504.53;5201208;28;20069;-80
2022/07/04 08:07:07;;;;;;;0.47;0.32;;;;;;;19.09;48.90;101510.00;5199883;28;20131;-80
2022/07/04 08:09:38;;;;;;;0.30;0.30;;;;;;;19.08;49.39;101505.63;5199199;28;20036;-80
2022/07/04 08:12:09;;;;;;;0.20;0.20;;;;;;;19.03;49.50;101510.31;5180230;28;20434;-80
2022/07/04 08:14:40;;;;;;;0.30;0.30;;;;;;;19.13;47.79;101503.56;5169731;28;20320;-80
2022/07/04 08:17:11;;;;;;;0.20;0.20;;;;;;;19.16;48.17;101505.25;5182499;28;20075;-80
2022/07/04 08:19:41;;;;;;;0.20;0.20;;;;;;;19.18;48.02;101509.53;5200512;28;20406;-80
2022/07/04 08:22:12;;;;;;;0.20;0.20;;;;;;;19.29;47.64;101516.13;5182289;28;20116;-80
2022/07/04 08:24:46;;;;;;;0.55;0.55;;;;;;;19.30;47.89;101517.81;5170998;28;20119;-80
2022/07/04 08:27:16;;;;;;;0.28;0.28;;;;;;;19.25;48.18;101506.56;5169877;28;20597;-79
2022/07/04 08:29:56;;;;;;;0.20;0.20;;;;;;;19.20;48.14;101509.44;5180490;28;20059;-78
2022/07/04 08:32:28;;;;;;;0.30;0.30;;;;;;;19.15;48.35;101503.53;5178418;28;20469;-78
2022/07/04 08:34:59;;;;;;;0.82;0.82;;;;;;;19.26;48.46;101506.47;5181503;28;20112;-79
2022/07/04 08:37:30;;;;;;;0.20;0.20;;;;;;;19.30;48.82;101509.84;5201926;28;20041;-79
2022/07/04 08:40:06;;;;;;;0.20;0.20;;;;;;;19.38;48.07;101507.63;5198270;28;20068;-78
2022/07/04 08:42:46;;;;;;;0.20;0.20;;;;;;;19.29;49.09;101500.16;5184099;28;20094;-79
2022/07/04 08:45:21;;;;;;;2.63;1.05;;;;;;;19.26;49.05;101500.31;5185697;28;20025;-79
2022/07/04 08:47:54;;;;;;;0.28;0.28;;;;;;;19.40;48.30;101497.78;5173846;28;20399;-78
2022/07/04 08:50:31;;;;;;;0.30;0.30;;;;;;;19.49;48.11;101501.78;5200918;28;20096;-79
2022/07/04 08:53:15;;;;;;;0.50;0.50;;;;;;;19.53;48.37;101498.00;5183490;28;20029;-79
2022/07/04 08:58:37;;;;;;;0.20;0.20;;;;;;;19.50;48.08;101492.88;5196267;28;20245;-79
2022/07/04 09:01:16;;;;;;;0.20;0.20;;;;;;;19.66;47.52;101498.22;5196242;28;20037;-79
2022/07/04 09:03:49;;;;;;;0.30;0.30;;;;;;;19.66;47.62;101493.78;5197661;28;20036;-79
2022/07/04 09:06:20;;;;;;;0.17;0.17;;;;;;;19.63;48.41;101498.38;5199350;28;20045;-78
2022/07/04 09:08:52;;;;;;;0.98;0.75;;;;;;;19.65;48.46;101497.38;5181872;28;20474;-79
2022/07/04 09:11:23;;;;;;;0.20;0.20;;;;;;;19.70;47.97;101496.25;5201560;28;20048;-79
2022/07/04 09:13:58;;;;;;;0.73;0.70;;;;;;;19.75;48.30;101495.06;5182874;28;20281;-78
2022/07/04 09:16:32;;;;;;;0.40;0.40;;;;;;;19.82;48.26;101493.78;5195770;28;20033;-79
2022/07/04 09:19:03;;;;;;;0.20;0.20;;;;;;;19.90;48.18;101493.41;5218339;28;20032;-78
2022/07/04 09:21:47;;;;;;;0.20;0.20;;;;;;;19.85;48.12;101492.78;5163581;28;20052;-79
2022/07/04 09:24:43;;;;;;;0.75;0.75;;;;;;;19.87;48.01;101487.41;5202967;28;20821;-78
2022/07/04 09:27:34;;;;;;;0.20;0.20;;;;;;;19.91;47.69;101481.84;5192407;28;20045;-79
2022/07/04 09:30:07;;;;;;;1.98;1.20;;;;;;;19.99;47.45;101484.06;5189114;28;20441;-78
2022/07/04 09:32:42;;;;;;;0.63;0.63;;;;;;;20.00;47.10;101480.44;5183522;28;20578;-78
2022/07/04 09:35:21;;;;;;;0.28;0.28;;;;;;;19.99;47.11;101491.19;5214535;28;20041;-78
2022/07/04 09:37:57;;;;;;;0.20;0.20;;;;;;;20.04;47.11;101482.00;5181774;28;20413;-79
2022/07/04 09:40:28;;;;;;;0.47;0.47;;;;;;;20.07;47.34;101486.31;5175746;28;20029;-78
2022/07/04 09:43:10;;;;;;;0.30;0.30;;;;;;;20.19;47.26;101479.44;5197655;28;20033;-78
2022/07/04 09:46:01;;;;;;;0.65;0.65;;;;;;;20.21;47.25;101474.88;5198028;28;20040;-79
2022/07/04 09:48:49;;;;;;;0.20;0.20;;;;;;;20.20;47.24;101478.50;5195296;28;20060;-79
2022/07/04 09:51:37;;;;;;;0.25;0.25;;;;;;;20.23;46.36;101476.53;5210497;28;20059;-79
2022/07/04 09:54:31;;;;;;;0.63;0.63;;;;;;;20.38;46.60;101485.44;5178716;28;20044;-79
2022/07/04 09:57:03;;;;;;;7.32;1.65;;;;;;;20.35;46.05;101479.44;5196822;28;20453;-79
2022/07/04 09:59:34;;;;;;;0.20;0.20;;;;;;;20.32;46.30;101485.78;5181310;28;20072;-79
2022/07/04 10:02:13;;;;;;;7.53;1.15;;;;;;;20.43;45.89;101478.06;5179806;28;20049;-78
2022/07/04 10:04:51;;;;;;;0.40;0.40;;;;;;;20.47;44.79;101478.75;5180615;28;20259;-79
2022/07/04 10:07:31;;;;;;;0.20;0.20;;;;;;;20.48;44.67;101483.13;5187883;28;20041;-79
2022/07/04 10:10:28;;;;;;;1.10;0.75;;;;;;;20.51;44.78;101474.94;5188358;28;20100;-79
2022/07/04 10:13:10;;;;;;;1.08;0.93;;;;;;;20.53;44.74;101464.22;5202650;28;20057;-80
2022/07/04 10:15:42;;;;;;;0.30;0.30;;;;;;;20.52;44.23;101474.00;5198909;28;20548;-80
2022/07/04 10:18:13;;;;;;;6.15;0.32;;;;;;;20.58;44.81;101470.13;5179865;28;20029;-80
2022/07/04 10:20:44;;;;;;;0.20;0.20;;;;;;;20.73;44.78;101479.94;5206924;28;20037;-80
2022/07/04 10:23:16;;;;;;;0.20;0.20;;;;;;;20.74;45.18;101481.66;5198627;28;20520;-78
2022/07/04 10:25:50;;;;;;;0.20;0.20;;;;;;;20.86;44.40;101473.91;5182360;28;20195;-78
2022/07/04 10:28:21;;;;;;;0.20;0.20;;;;;;;20.92;44.58;101473.53;5213719;28;20072;-79
2022/07/04 10:30:54;;;;;;;0.20;0.20;;;;;;;20.94;44.59;101465.44;5206126;28;20430;-78
2022/07/04 10:33:29;;;;;;;0.35;0.35;;;;;;;21.01;43.99;101467.66;5182633;28;20067;-79
2022/07/04 10:36:04;;;;;;;0.35;0.35;;;;;;;21.12;44.11;101466.13;5193809;28;20048;-79
2022/07/04 10:38:51;;;;;;;1.08;0.65;;;;;;;21.12;43.08;101459.00;5191834;28;20025;-79
2022/07/04 10:41:23;;;;;;;0.30;0.30;;;;;;;21.16;43.12;101465.00;5182743;28;20124;-80
2022/07/04 10:44:21;;;;;;;0.30;0.30;;;;;;;21.34;43.14;101453.22;5184257;28;20021;-79
2022/07/04 10:46:56;;;;;;;0.45;0.45;;;;;;;21.33;43.44;101454.19;5181998;28;20114;-80
2022/07/04 10:49:28;;;;;;;0.40;0.40;;;;;;;21.39;42.83;101445.78;5205422;28;20040;-79
2022/07/04 10:52:13;;;;;;;0.30;0.30;;;;;;;21.47;42.66;101447.13;5200965;28;20040;-80
2022/07/04 10:54:44;;;;;;;0.30;0.30;;;;;;;21.53;42.69;101441.41;5204683;28;20425;-80
2022/07/04 10:57:19;;;;;;;1.05;0.45;;;;;;;21.63;42.96;101437.25;5191927;28;20075;-79
2022/07/04 10:59:57;;;;;;;0.20;0.20;;;;;;;21.67;42.95;101430.78;5173878;28;20040;-79
2022/07/04 11:02:30;;;;;;;0.22;0.22;;;;;;;21.77;43.10;101425.69;5182506;28;20179;-79
2022/07/04 11:05:05;;;;;;;1.55;1.10;;;;;;;21.84;42.49;101428.84;5199109;28;20032;-79
2022/07/04 11:07:35;;;;;;;0.20;0.20;;;;;;;21.88;41.78;101430.34;5191001;28;20119;-80
2022/07/04 11:13:02;;;;;;;0.20;0.20;;;;;;;21.92;41.47;101423.88;5183020;28;20086;-79
2022/07/04 11:15:32;;;;;;;0.20;0.20;;;;;;;21.89;41.35;101413.38;5194162;28;20045;-79
2022/07/04 11:18:13;;;;;;;0.40;0.40;;;;;;;21.99;41.93;101414.50;5186855;28;20524;-79
2022/07/04 11:20:47;;;;;;;0.50;0.50;;;;;;;22.07;41.59;101403.28;5180430;28;20132;-79
2022/07/04 11:23:20;;;;;;;0.65;0.65;;;;;;;22.12;41.07;101411.91;5181759;28;20422;-79
2022/07/04 11:25:54;;;;;;;0.20;0.20;;;;;;;22.17;41.57;101407.09;5203216;28;20497;-80
2022/07/04 11:28:29;;;;;;;0.20;0.20;;;;;;;22.30;41.27;101408.97;5206647;28;20127;-79
2022/07/04 11:31:00;;;;;;;6.78;0.98;;;;;;;22.33;42.01;101398.94;5200716;28;20072;-80
2022/07/04 11:33:33;;;;;;;3.85;0.85;;;;;;;22.43;41.48;101398.34;5169392;28;20156;-79
2022/07/04 11:36:14;;;;;;;0.38;0.38;;;;;;;22.54;40.50;101395.81;5193540;28;20049;-79
2022/07/04 11:38:44;;;;;;;0.40;0.40;;;;;;;22.62;40.28;101396.16;5180970;28;20035;-79
2022/07/04 11:47:08;;;;;;;0.20;0.20;;;;;;;22.91;39.75;101396.00;5201926;28;20098;-80
2022/07/04 11:49:42;;;;;;;0.38;0.38;;;;;;;22.97;39.75;101402.75;5177484;28;20105;-79
2022/07/04 11:52:14;;;;;;;0.63;0.63;;;;;;;23.07;39.98;101394.94;5202243;28;20033;-80
2022/07/04 11:54:46;;;;;;;0.43;0.40;;;;;;;23.14;39.72;101403.41;5197806;28;20041;-80
2022/07/04 11:57:23;;;;;;;0.20;0.20;;;;;;;23.33;40.14;101409.19;5202339;28;20149;-79
2022/07/04 11:59:57;;;;;;;0.40;0.40;;;;;;;23.34;39.15;101404.72;5200414;28;20029;-80
2022/07/04 12:02:32;;;;;;;0.20;0.20;;;;;;;23.57;37.87;101406.59;5150382;28;20045;-80
2022/07/04 12:05:05;;;;;;;0.50;0.50;;;;;;;23.49;39.12;101398.25;5197952;28;20067;-80
2022/07/04 12:07:39;;;;;;;0.20;0.20;;;;;;;23.54;38.64;101398.78;5182449;28;20037;-80
2022/07/04 12:10:11;;;;;;;0.20;0.20;;;;;;;23.49;36.45;101402.75;5183408;28;20111;-80
2022/07/04 12:13:11;;;;;;;0.20;0.20;;;;;;;23.66;37.90;101398.88;5205172;28;20033;-80
2022/07/04 12:15:43;;;;;;;0.20;0.20;;;;;;;23.70;38.32;101398.53;5180593;28;20605;-80
2022/07/04 12:18:33;;;;;;;0.20;0.20;;;;;;;23.83;37.83;101393.16;5216752;28;20154;-79
2022/07/04 12:21:12;;;;;;;0.20;0.20;;;;;;;23.96;37.13;101390.47;5189364;28;20036;-80